sensor_id;sensor_type;location;lat;lon;timestamp;pressure;altitude;pressure_sealevel;temperature;humidity
22651;BME280;11492;42.646;23.400;2022-08-19T00:00:13;94782.91;;;22.29;56.75
22651;BME280;11492;42.646;23.400;2022-08-19T00:02:40;94784.16;;;22.17;57.00
22651;BME280;11492;42.646;23.400;2022-08-19T00:05:06;94788.63;;;22.16;57.16
22651;BME280;11492;42.646;23.400;2022-08-19T00:07:32;94779.91;;;22.11;57.16
22651;BME280;11492;42.646;23.400;2022-08-19T00:09:57;94782.00;;;22.14;57.07
22651;BME280;11492;42.646;23.400;2022-08-19T00:12:22;94781.25;;;22.18;57.15
22651;BME280;11492;42.646;23.400;2022-08-19T00:14:48;94785.16;;;22.11;56.80
22651;BME280;11492;42.646;23.400;2022-08-19T00:17:13;94783.81;;;22.08;56.98
22651;BME280;11492;42.646;23.400;2022-08-19T00:19:38;94792.28;;;21.79;57.70
22651;BME280;11492;42.646;23.400;2022-08-19T00:22:04;94792.06;;;21.86;57.76
22651;BME280;11492;42.646;23.400;2022-08-19T00:24:30;94796.00;;;21.88;57.94
22651;BME280;11492;42.646;23.400;2022-08-19T00:26:55;94802.38;;;21.61;58.40
22651;BME280;11492;42.646;23.400;2022-08-19T00:29:21;94803.91;;;21.57;58.55
22651;BME280;11492;42.646;23.400;2022-08-19T00:31:47;94804.00;;;21.67;58.46
22651;BME280;11492;42.646;23.400;2022-08-19T00:34:13;94800.25;;;21.58;58.70
22651;BME280;11492;42.646;23.400;2022-08-19T00:36:39;94802.75;;;21.44;59.33
22651;BME280;11492;42.646;23.400;2022-08-19T00:39:05;94809.25;;;21.15;60.15
22651;BME280;11492;42.646;23.400;2022-08-19T00:41:30;94795.63;;;21.18;60.15
22651;BME280;11492;42.646;23.400;2022-08-19T00:43:59;94788.66;;;21.28;59.47
22651;BME280;11492;42.646;23.400;2022-08-19T00:46:25;94797.50;;;21.44;59.36
22651;BME280;11492;42.646;23.400;2022-08-19T00:48:50;94793.59;;;21.51;59.06
22651;BME280;11492;42.646;23.400;2022-08-19T00:51:15;94789.66;;;21.49;59.03
22651;BME280;11492;42.646;23.400;2022-08-19T00:53:41;94795.97;;;21.52;58.89
22651;BME280;11492;42.646;23.400;2022-08-19T00:56:07;94797.38;;;21.60;59.09
22651;BME280;11492;42.646;23.400;2022-08-19T00:58:34;94790.63;;;21.69;58.81
22651;BME280;11492;42.646;23.400;2022-08-19T01:01:00;94793.47;;;21.67;58.54
22651;BME280;11492;42.646;23.400;2022-08-19T01:03:25;94795.88;;;21.69;58.66
22651;BME280;11492;42.646;23.400;2022-08-19T01:05:51;94801.41;;;21.72;58.78
22651;BME280;11492;42.646;23.400;2022-08-19T01:08:18;94794.59;;;21.76;58.62
22651;BME280;11492;42.646;23.400;2022-08-19T01:10:46;94798.81;;;21.77;58.58
22651;BME280;11492;42.646;23.400;2022-08-19T01:13:13;94793.81;;;21.75;58.38
22651;BME280;11492;42.646;23.400;2022-08-19T01:15:43;94799.91;;;21.81;58.41
22651;BME280;11492;42.646;23.400;2022-08-19T01:18:11;94793.06;;;21.80;58.47
22651;BME280;11492;42.646;23.400;2022-08-19T01:20:37;94799.88;;;21.76;58.42
22651;BME280;11492;42.646;23.400;2022-08-19T01:23:02;94794.56;;;21.71;58.57
22651;BME280;11492;42.646;23.400;2022-08-19T01:25:29;94787.44;;;21.67;58.81
22651;BME280;11492;42.646;23.400;2022-08-19T01:27:56;94795.84;;;21.64;59.13
22651;BME280;11492;42.646;23.400;2022-08-19T01:30:24;94789.47;;;21.60;59.21
22651;BME280;11492;42.646;23.400;2022-08-19T01:32:50;94799.75;;;21.61;59.19
22651;BME280;11492;42.646;23.400;2022-08-19T01:35:15;94805.50;;;21.58;59.31
22651;BME280;11492;42.646;23.400;2022-08-19T01:38:05;94796.78;;;21.53;59.92
22651;BME280;11492;42.646;23.400;2022-08-19T01:40:32;94788.84;;;21.48;60.31
22651;BME280;11492;42.646;23.400;2022-08-19T01:42:58;94788.56;;;21.45;60.40
22651;BME280;11492;42.646;23.400;2022-08-19T01:45:24;94783.00;;;21.41;60.23
22651;BME280;11492;42.646;23.400;2022-08-19T01:47:51;94788.09;;;21.26;60.24
22651;BME280;11492;42.646;23.400;2022-08-19T01:50:17;94785.53;;;21.10;60.83
22651;BME280;11492;42.646;23.400;2022-08-19T01:52:42;94788.22;;;21.15;60.72
22651;BME280;11492;42.646;23.400;2022-08-19T01:55:09;94786.16;;;21.17;60.77
22651;BME280;11492;42.646;23.400;2022-08-19T01:57:35;94793.00;;;21.18;60.41
22651;BME280;11492;42.646;23.400;2022-08-19T02:00:01;94787.19;;;21.16;60.45
22651;BME280;11492;42.646;23.400;2022-08-19T02:02:29;94790.13;;;21.20;60.73
22651;BME280;11492;42.646;23.400;2022-08-19T02:04:55;94788.22;;;21.15;60.39
22651;BME280;11492;42.646;23.400;2022-08-19T02:07:20;94795.56;;;21.13;60.46
22651;BME280;11492;42.646;23.400;2022-08-19T02:09:49;94792.78;;;20.98;60.53
22651;BME280;11492;42.646;23.400;2022-08-19T02:12:14;94786.22;;;21.01;60.52
22651;BME280;11492;42.646;23.400;2022-08-19T02:14:39;94781.53;;;21.03;60.44
22651;BME280;11492;42.646;23.400;2022-08-19T02:17:05;94793.84;;;20.98;60.54
22651;BME280;11492;42.646;23.400;2022-08-19T02:19:30;94788.41;;;20.83;60.43
22651;BME280;11492;42.646;23.400;2022-08-19T02:21:57;94784.09;;;20.72;61.11
22651;BME280;11492;42.646;23.400;2022-08-19T02:24:22;94793.28;;;20.74;60.93
22651;BME280;11492;42.646;23.400;2022-08-19T02:26:48;94791.72;;;20.52;61.41
22651;BME280;11492;42.646;23.400;2022-08-19T02:29:13;94796.16;;;20.52;61.52
22651;BME280;11492;42.646;23.400;2022-08-19T02:31:38;94802.81;;;20.59;61.52
22651;BME280;11492;42.646;23.400;2022-08-19T02:34:04;94804.97;;;20.62;61.29
22651;BME280;11492;42.646;23.400;2022-08-19T02:36:29;94803.63;;;20.44;61.89
22651;BME280;11492;42.646;23.400;2022-08-19T02:38:55;94804.72;;;20.48;61.96
22651;BME280;11492;42.646;23.400;2022-08-19T02:41:24;94801.50;;;20.41;61.68
22651;BME280;11492;42.646;23.400;2022-08-19T02:43:50;94800.47;;;20.42;62.12
22651;BME280;11492;42.646;23.400;2022-08-19T02:46:17;94806.34;;;20.48;62.13
22651;BME280;11492;42.646;23.400;2022-08-19T02:48:46;94807.69;;;20.51;62.19
22651;BME280;11492;42.646;23.400;2022-08-19T02:51:15;94810.16;;;20.57;61.88
22651;BME280;11492;42.646;23.400;2022-08-19T02:53:40;94805.03;;;20.67;61.61
22651;BME280;11492;42.646;23.400;2022-08-19T02:56:06;94807.78;;;20.77;61.22
22651;BME280;11492;42.646;23.400;2022-08-19T02:58:31;94801.72;;;20.76;61.34
22651;BME280;11492;42.646;23.400;2022-08-19T03:00:57;94807.81;;;20.82;61.36
22651;BME280;11492;42.646;23.400;2022-08-19T03:03:22;94806.00;;;20.82;61.22
22651;BME280;11492;42.646;23.400;2022-08-19T03:05:48;94808.94;;;20.86;60.96
22651;BME280;11492;42.646;23.400;2022-08-19T03:08:13;94801.53;;;20.83;61.24
22651;BME280;11492;42.646;23.400;2022-08-19T03:10:40;94810.72;;;20.80;61.40
22651;BME280;11492;42.646;23.400;2022-08-19T03:13:07;94803.56;;;20.76;61.56
22651;BME280;11492;42.646;23.400;2022-08-19T03:15:33;94807.66;;;20.67;61.81
22651;BME280;11492;42.646;23.400;2022-08-19T03:17:59;94804.91;;;20.57;62.27
22651;BME280;11492;42.646;23.400;2022-08-19T03:20:24;94802.81;;;20.59;62.21
22651;BME280;11492;42.646;23.400;2022-08-19T03:22:50;94804.41;;;20.60;62.37
22651;BME280;11492;42.646;23.400;2022-08-19T03:25:16;94799.22;;;20.65;62.50
22651;BME280;11492;42.646;23.400;2022-08-19T03:27:42;94783.47;;;20.65;62.26
22651;BME280;11492;42.646;23.400;2022-08-19T03:30:08;94798.84;;;20.57;62.75
22651;BME280;11492;42.646;23.400;2022-08-19T03:32:33;94806.66;;;20.52;62.92
22651;BME280;11492;42.646;23.400;2022-08-19T03:34:59;94801.66;;;20.50;63.15
22651;BME280;11492;42.646;23.400;2022-08-19T03:37:24;94806.34;;;20.48;62.99
22651;BME280;11492;42.646;23.400;2022-08-19T03:39:50;94812.06;;;20.46;62.84
22651;BME280;11492;42.646;23.400;2022-08-19T03:42:15;94807.16;;;20.33;63.17
22651;BME280;11492;42.646;23.400;2022-08-19T03:44:42;94815.53;;;20.30;63.51
22651;BME280;11492;42.646;23.400;2022-08-19T03:47:09;94813.94;;;20.29;63.29
22651;BME280;11492;42.646;23.400;2022-08-19T03:49:40;94816.63;;;20.34;63.36
22651;BME280;11492;42.646;23.400;2022-08-19T03:52:05;94826.09;;;20.35;63.47
22651;BME280;11492;42.646;23.400;2022-08-19T03:54:32;94824.25;;;20.35;63.39
22651;BME280;11492;42.646;23.400;2022-08-19T03:56:57;94826.38;;;20.38;63.38
22651;BME280;11492;42.646;23.400;2022-08-19T03:59:24;94824.53;;;20.39;63.24
22651;BME280;11492;42.646;23.400;2022-08-19T04:01:51;94828.78;;;20.40;63.30
22651;BME280;11492;42.646;23.400;2022-08-19T04:04:17;94823.09;;;20.48;63.14
22651;BME280;11492;42.646;23.400;2022-08-19T04:06:42;94826.31;;;20.49;62.70
22651;BME280;11492;42.646;23.400;2022-08-19T04:09:08;94834.75;;;20.51;63.15
22651;BME280;11492;42.646;23.400;2022-08-19T04:11:42;94842.28;;;20.32;63.52
22651;BME280;11492;42.646;23.400;2022-08-19T04:14:09;94842.69;;;20.40;63.34
22651;BME280;11492;42.646;23.400;2022-08-19T04:16:34;94846.81;;;20.52;63.19
22651;BME280;11492;42.646;23.400;2022-08-19T04:19:00;94844.56;;;20.61;63.19
22651;BME280;11492;42.646;23.400;2022-08-19T04:21:26;94848.59;;;20.68;63.22
22651;BME280;11492;42.646;23.400;2022-08-19T04:23:51;94853.31;;;20.66;62.97
22651;BME280;11492;42.646;23.400;2022-08-19T04:26:18;94846.53;;;20.70;62.81
22651;BME280;11492;42.646;23.400;2022-08-19T04:28:45;94845.13;;;20.84;62.76
22651;BME280;11492;42.646;23.400;2022-08-19T04:31:18;94851.00;;;20.91;62.43
22651;BME280;11492;42.646;23.400;2022-08-19T04:33:43;94851.03;;;20.96;61.97
22651;BME280;11492;42.646;23.400;2022-08-19T04:36:15;94848.72;;;20.99;62.00
22651;BME280;11492;42.646;23.400;2022-08-19T04:38:41;94851.78;;;21.12;61.86
22651;BME280;11492;42.646;23.400;2022-08-19T04:41:06;94849.50;;;21.21;61.61
22651;BME280;11492;42.646;23.400;2022-08-19T04:43:50;94853.56;;;21.28;61.43
22651;BME280;11492;42.646;23.400;2022-08-19T04:46:15;94838.44;;;21.40;61.56
22651;BME280;11492;42.646;23.400;2022-08-19T04:48:42;94844.22;;;21.42;61.43
22651;BME280;11492;42.646;23.400;2022-08-19T04:51:09;94838.03;;;21.52;61.33
22651;BME280;11492;42.646;23.400;2022-08-19T04:53:36;94834.97;;;21.60;60.87
22651;BME280;11492;42.646;23.400;2022-08-19T04:56:04;94846.56;;;21.64;60.16
22651;BME280;11492;42.646;23.400;2022-08-19T04:58:30;94847.16;;;21.71;60.01
22651;BME280;11492;42.646;23.400;2022-08-19T05:00:55;94849.03;;;21.75;59.88
22651;BME280;11492;42.646;23.400;2022-08-19T05:03:20;94850.13;;;21.79;59.89
22651;BME280;11492;42.646;23.400;2022-08-19T05:05:47;94851.50;;;21.87;59.75
22651;BME280;11492;42.646;23.400;2022-08-19T05:08:17;94853.38;;;21.91;59.18
22651;BME280;11492;42.646;23.400;2022-08-19T05:10:46;94858.94;;;21.95;58.90
22651;BME280;11492;42.646;23.400;2022-08-19T05:13:12;94854.66;;;21.89;58.52
22651;BME280;11492;42.646;23.400;2022-08-19T05:15:37;94852.25;;;21.82;59.32
22651;BME280;11492;42.646;23.400;2022-08-19T05:18:03;94856.31;;;21.95;59.10
22651;BME280;11492;42.646;23.400;2022-08-19T05:20:47;94851.50;;;21.87;59.34
22651;BME280;11492;42.646;23.400;2022-08-19T05:23:30;94858.09;;;21.89;59.24
22651;BME280;11492;42.646;23.400;2022-08-19T05:25:56;94839.56;;;22.00;58.95
22651;BME280;11492;42.646;23.400;2022-08-19T05:28:21;94854.31;;;22.06;58.94
22651;BME280;11492;42.646;23.400;2022-08-19T05:30:46;94850.19;;;22.15;58.87
22651;BME280;11492;42.646;23.400;2022-08-19T05:33:13;94852.63;;;22.26;58.70
22651;BME280;11492;42.646;23.400;2022-08-19T05:35:38;94856.50;;;22.19;58.60
22651;BME280;11492;42.646;23.400;2022-08-19T05:38:05;94854.47;;;22.26;58.58
22651;BME280;11492;42.646;23.400;2022-08-19T05:40:33;94852.16;;;22.34;58.22
22651;BME280;11492;42.646;23.400;2022-08-19T05:42:59;94857.72;;;22.38;58.14
22651;BME280;11492;42.646;23.400;2022-08-19T05:45:24;94855.13;;;22.43;57.59
22651;BME280;11492;42.646;23.400;2022-08-19T05:47:50;94852.53;;;22.52;57.38
22651;BME280;11492;42.646;23.400;2022-08-19T05:50:15;94858.44;;;22.69;57.24
22651;BME280;11492;42.646;23.400;2022-08-19T05:52:42;94856.16;;;22.82;56.58
22651;BME280;11492;42.646;23.400;2022-08-19T05:55:07;94855.97;;;22.94;56.50
22651;BME280;11492;42.646;23.400;2022-08-19T05:57:33;94854.91;;;23.00;56.22
22651;BME280;11492;42.646;23.400;2022-08-19T05:59:58;94852.06;;;23.11;56.17
22651;BME280;11492;42.646;23.400;2022-08-19T06:02:27;94848.63;;;23.05;55.82
22651;BME280;11492;42.646;23.400;2022-08-19T06:04:53;94857.09;;;23.17;55.28
22651;BME280;11492;42.646;23.400;2022-08-19T06:07:18;94855.28;;;23.32;54.70
22651;BME280;11492;42.646;23.400;2022-08-19T06:09:44;94855.09;;;23.49;53.72
22651;BME280;11492;42.646;23.400;2022-08-19T06:12:10;94856.22;;;23.67;53.21
22651;BME280;11492;42.646;23.400;2022-08-19T06:14:35;94858.31;;;23.80;52.87
22651;BME280;11492;42.646;23.400;2022-08-19T06:17:01;94860.19;;;23.94;53.40
22651;BME280;11492;42.646;23.400;2022-08-19T06:19:27;94860.19;;;24.09;54.30
22651;BME280;11492;42.646;23.400;2022-08-19T06:21:55;94862.06;;;24.18;54.63
22651;BME280;11492;42.646;23.400;2022-08-19T06:24:22;94868.94;;;24.29;54.79
22651;BME280;11492;42.646;23.400;2022-08-19T06:26:51;94867.09;;;24.39;54.46
22651;BME280;11492;42.646;23.400;2022-08-19T06:29:18;94859.66;;;24.51;53.11
22651;BME280;11492;42.646;23.400;2022-08-19T06:31:45;94862.84;;;24.53;53.05
22651;BME280;11492;42.646;23.400;2022-08-19T06:34:11;94854.09;;;24.62;53.31
22651;BME280;11492;42.646;23.400;2022-08-19T06:36:38;94860.41;;;24.71;53.22
22651;BME280;11492;42.646;23.400;2022-08-19T06:39:09;94865.72;;;24.81;52.75
22651;BME280;11492;42.646;23.400;2022-08-19T06:41:36;94863.03;;;24.91;52.49
22651;BME280;11492;42.646;23.400;2022-08-19T06:44:02;94855.34;;;24.99;51.99
22651;BME280;11492;42.646;23.400;2022-08-19T06:46:27;94857.97;;;25.04;51.25
22651;BME280;11492;42.646;23.400;2022-08-19T06:48:53;94857.69;;;25.10;51.36
22651;BME280;11492;42.646;23.400;2022-08-19T06:51:19;94857.63;;;25.20;51.05
22651;BME280;11492;42.646;23.400;2022-08-19T06:53:46;94859.72;;;25.28;50.31
22651;BME280;11492;42.646;23.400;2022-08-19T06:56:16;94861.03;;;25.30;49.59
22651;BME280;11492;42.646;23.400;2022-08-19T06:58:41;94866.06;;;25.32;49.48
22651;BME280;11492;42.646;23.400;2022-08-19T07:01:07;94869.47;;;25.37;49.39
22651;BME280;11492;42.646;23.400;2022-08-19T07:03:33;94864.69;;;25.44;49.34
22651;BME280;11492;42.646;23.400;2022-08-19T07:06:03;94865.72;;;25.53;49.49
22651;BME280;11492;42.646;23.400;2022-08-19T07:08:29;94875.47;;;25.62;49.16
22651;BME280;11492;42.646;23.400;2022-08-19T07:10:54;94874.63;;;25.67;48.26
22651;BME280;11492;42.646;23.400;2022-08-19T07:13:19;94873.56;;;25.73;48.29
22651;BME280;11492;42.646;23.400;2022-08-19T07:15:46;94868.44;;;25.81;48.07
22651;BME280;11492;42.646;23.400;2022-08-19T07:18:11;94873.44;;;25.87;48.13
22651;BME280;11492;42.646;23.400;2022-08-19T07:20:37;94871.00;;;25.96;48.00
22651;BME280;11492;42.646;23.400;2022-08-19T07:23:03;94877.34;;;26.04;48.01
22651;BME280;11492;42.646;23.400;2022-08-19T07:25:28;94871.97;;;26.14;47.80
22651;BME280;11492;42.646;23.400;2022-08-19T07:27:53;94868.50;;;26.19;47.45
22651;BME280;11492;42.646;23.400;2022-08-19T07:30:19;94870.53;;;26.27;46.96
22651;BME280;11492;42.646;23.400;2022-08-19T07:32:44;94872.78;;;26.43;46.65
22651;BME280;11492;42.646;23.400;2022-08-19T07:35:09;94869.75;;;26.54;47.01
22651;BME280;11492;42.646;23.400;2022-08-19T07:37:35;94870.22;;;26.66;45.83
22651;BME280;11492;42.646;23.400;2022-08-19T07:40:03;94867.47;;;26.76;45.67
22651;BME280;11492;42.646;23.400;2022-08-19T07:42:28;94859.69;;;26.84;45.32
22651;BME280;11492;42.646;23.400;2022-08-19T07:44:54;94859.06;;;26.92;45.49
22651;BME280;11492;42.646;23.400;2022-08-19T07:47:19;94856.31;;;27.02;45.49
22651;BME280;11492;42.646;23.400;2022-08-19T07:49:45;94857.25;;;27.10;45.03
22651;BME280;11492;42.646;23.400;2022-08-19T07:52:10;94863.03;;;27.17;45.17
22651;BME280;11492;42.646;23.400;2022-08-19T07:54:36;94857.41;;;27.42;44.65
22651;BME280;11492;42.646;23.400;2022-08-19T07:57:02;94863.72;;;27.69;43.95
22651;BME280;11492;42.646;23.400;2022-08-19T07:59:28;94857.41;;;27.83;43.23
22651;BME280;11492;42.646;23.400;2022-08-19T08:01:54;94858.13;;;27.88;42.78
22651;BME280;11492;42.646;23.400;2022-08-19T08:04:19;94861.09;;;28.05;43.24
22651;BME280;11492;42.646;23.400;2022-08-19T08:07:04;94854.16;;;28.04;42.63
22651;BME280;11492;42.646;23.400;2022-08-19T08:09:49;94859.25;;;28.37;41.92
22651;BME280;11492;42.646;23.400;2022-08-19T08:12:16;94854.75;;;28.51;41.77
22651;BME280;11492;42.646;23.400;2022-08-19T08:14:43;94848.13;;;28.93;41.77
22651;BME280;11492;42.646;23.400;2022-08-19T08:17:09;94843.53;;;29.38;40.48
22651;BME280;11492;42.646;23.400;2022-08-19T08:19:35;94843.41;;;29.82;40.51
22651;BME280;11492;42.646;23.400;2022-08-19T08:22:01;94843.78;;;30.24;39.07
22651;BME280;11492;42.646;23.400;2022-08-19T08:24:28;94844.13;;;30.53;38.22
22651;BME280;11492;42.646;23.400;2022-08-19T08:26:54;94839.94;;;30.82;38.16
22651;BME280;11492;42.646;23.400;2022-08-19T08:29:19;94840.44;;;31.13;37.81
22651;BME280;11492;42.646;23.400;2022-08-19T08:31:45;94837.72;;;31.52;36.68
22651;BME280;11492;42.646;23.400;2022-08-19T08:34:11;94843.88;;;31.52;36.34
22651;BME280;11492;42.646;23.400;2022-08-19T08:36:40;94844.13;;;31.89;37.10
22651;BME280;11492;42.646;23.400;2022-08-19T08:39:09;94830.44;;;32.32;35.78
22651;BME280;11492;42.646;23.400;2022-08-19T08:44:00;94838.94;;;32.34;34.94
22651;BME280;11492;42.646;23.400;2022-08-19T08:51:33;94821.09;;;32.80;33.70
22651;BME280;11492;42.646;23.400;2022-08-19T08:53:59;94819.88;;;32.60;34.12
22651;BME280;11492;42.646;23.400;2022-08-19T08:56:25;94818.34;;;33.05;34.76
22651;BME280;11492;42.646;23.400;2022-08-19T08:59:05;94818.91;;;33.55;33.55
22651;BME280;11492;42.646;23.400;2022-08-19T09:01:33;94815.63;;;33.78;32.60
22651;BME280;11492;42.646;23.400;2022-08-19T09:03:58;94817.44;;;34.14;32.22
22651;BME280;11492;42.646;23.400;2022-08-19T09:16:59;94806.59;;;35.07;28.38
22651;BME280;11492;42.646;23.400;2022-08-19T09:19:28;94802.25;;;35.14;28.87
22651;BME280;11492;42.646;23.400;2022-08-19T09:21:53;94800.34;;;35.38;28.82
22651;BME280;11492;42.646;23.400;2022-08-19T09:24:19;94805.38;;;35.87;28.39
22651;BME280;11492;42.646;23.400;2022-08-19T09:26:44;94798.41;;;36.09;26.74
22651;BME280;11492;42.646;23.400;2022-08-19T09:29:10;94793.72;;;36.33;27.01
22651;BME280;11492;42.646;23.400;2022-08-19T09:31:35;94795.44;;;36.53;26.30
22651;BME280;11492;42.646;23.400;2022-08-19T09:34:01;94793.03;;;36.63;27.00
22651;BME280;11492;42.646;23.400;2022-08-19T09:36:28;94790.22;;;36.44;26.71
22651;BME280;11492;42.646;23.400;2022-08-19T09:38:55;94793.72;;;36.87;26.29
22651;BME280;11492;42.646;23.400;2022-08-19T09:41:21;94789.28;;;37.10;25.66
22651;BME280;11492;42.646;23.400;2022-08-19T09:43:49;94786.31;;;37.26;25.06
22651;BME280;11492;42.646;23.400;2022-08-19T09:46:16;94788.44;;;37.36;24.60
22651;BME280;11492;42.646;23.400;2022-08-19T09:48:44;94787.59;;;37.47;24.36
22651;BME280;11492;42.646;23.400;2022-08-19T09:51:11;94786.00;;;37.46;23.49
22651;BME280;11492;42.646;23.400;2022-08-19T09:53:40;94784.69;;;37.41;23.25
22651;BME280;11492;42.646;23.400;2022-08-19T09:56:06;94782.09;;;37.44;23.84
22651;BME280;11492;42.646;23.400;2022-08-19T09:58:32;94773.88;;;37.56;24.40
22651;BME280;11492;42.646;23.400;2022-08-19T10:00:58;94768.41;;;37.67;23.66
22651;BME280;11492;42.646;23.400;2022-08-19T10:03:24;94768.13;;;37.72;24.39
22651;BME280;11492;42.646;23.400;2022-08-19T10:05:49;94770.91;;;37.61;24.04
22651;BME280;11492;42.646;23.400;2022-08-19T10:08:19;94765.00;;;37.55;23.39
22651;BME280;11492;42.646;23.400;2022-08-19T10:10:45;94765.00;;;37.70;23.76
22651;BME280;11492;42.646;23.400;2022-08-19T10:13:10;94763.44;;;37.69;23.18
22651;BME280;11492;42.646;23.400;2022-08-19T10:15:36;94762.91;;;37.79;23.53
22651;BME280;11492;42.646;23.400;2022-08-19T10:18:04;94762.41;;;37.92;23.23
22651;BME280;11492;42.646;23.400;2022-08-19T10:20:29;94759.38;;;37.94;23.24
22651;BME280;11492;42.646;23.400;2022-08-19T10:22:55;94762.91;;;37.79;23.60
22651;BME280;11492;42.646;23.400;2022-08-19T10:25:20;94755.31;;;37.85;24.06
22651;BME280;11492;42.646;23.400;2022-08-19T10:27:45;94753.84;;;38.06;24.26
22651;BME280;11492;42.646;23.400;2022-08-19T10:30:11;94753.72;;;38.18;23.33
22651;BME280;11492;42.646;23.400;2022-08-19T10:32:36;94750.59;;;38.34;23.34
22651;BME280;11492;42.646;23.400;2022-08-19T10:35:03;94749.72;;;38.49;23.36
22651;BME280;11492;42.646;23.400;2022-08-19T10:37:30;94751.22;;;38.28;23.80
22651;BME280;11492;42.646;23.400;2022-08-19T10:39:57;94746.16;;;38.08;23.44
22651;BME280;11492;42.646;23.400;2022-08-19T10:42:22;94746.97;;;38.27;23.02
22651;BME280;11492;42.646;23.400;2022-08-19T10:44:48;94751.03;;;38.36;23.15
22651;BME280;11492;42.646;23.400;2022-08-19T10:47:13;94743.47;;;38.45;23.26
22651;BME280;11492;42.646;23.400;2022-08-19T10:49:39;94744.63;;;38.63;23.47
22651;BME280;11492;42.646;23.400;2022-08-19T10:52:24;94740.91;;;38.52;22.93
22651;BME280;11492;42.646;23.400;2022-08-19T10:54:59;94733.69;;;38.56;23.88
22651;BME280;11492;42.646;23.400;2022-08-19T10:57:42;94738.78;;;38.42;22.83
22651;BME280;11492;42.646;23.400;2022-08-19T11:00:08;94735.66;;;38.59;22.72
22651;BME280;11492;42.646;23.400;2022-08-19T11:02:33;94734.78;;;38.73;22.99
22651;BME280;11492;42.646;23.400;2022-08-19T11:04:59;94737.25;;;38.82;22.84
22651;BME280;11492;42.646;23.400;2022-08-19T11:07:24;94733.16;;;38.69;22.62
22651;BME280;11492;42.646;23.400;2022-08-19T11:09:51;94741.19;;;38.66;22.88
22651;BME280;11492;42.646;23.400;2022-08-19T11:12:16;94729.19;;;38.63;22.87
22651;BME280;11492;42.646;23.400;2022-08-19T11:14:42;94730.94;;;38.74;22.74
22651;BME280;11492;42.646;23.400;2022-08-19T11:17:07;94730.25;;;38.81;22.55
22651;BME280;11492;42.646;23.400;2022-08-19T11:19:32;94730.63;;;38.79;22.60
22651;BME280;11492;42.646;23.400;2022-08-19T11:21:58;94729.47;;;38.80;22.91
22651;BME280;11492;42.646;23.400;2022-08-19T11:24:26;94723.38;;;38.83;22.90
22651;BME280;11492;42.646;23.400;2022-08-19T11:26:54;94724.75;;;38.74;22.52
22651;BME280;11492;42.646;23.400;2022-08-19T11:29:24;94719.03;;;38.79;22.94
22651;BME280;11492;42.646;23.400;2022-08-19T11:31:50;94719.16;;;38.45;23.42
22651;BME280;11492;42.646;23.400;2022-08-19T11:34:18;94722.06;;;38.55;23.73
22651;BME280;11492;42.646;23.400;2022-08-19T11:36:44;94709.78;;;38.80;22.42
22651;BME280;11492;42.646;23.400;2022-08-19T11:39:10;94703.59;;;39.01;22.45
22651;BME280;11492;42.646;23.400;2022-08-19T11:41:36;94704.84;;;38.85;22.82
22651;BME280;11492;42.646;23.400;2022-08-19T11:44:01;94695.56;;;38.83;22.96
22651;BME280;11492;42.646;23.400;2022-08-19T11:46:28;94688.25;;;38.87;22.63
22651;BME280;11492;42.646;23.400;2022-08-19T11:48:57;94700.44;;;38.96;23.20
22651;BME280;11492;42.646;23.400;2022-08-19T11:51:24;94690.47;;;39.00;22.37
22651;BME280;11492;42.646;23.400;2022-08-19T11:53:50;94691.03;;;38.90;22.69
22651;BME280;11492;42.646;23.400;2022-08-19T11:56:16;94692.78;;;39.01;22.87
22651;BME280;11492;42.646;23.400;2022-08-19T11:58:42;94686.00;;;39.11;22.61
22651;BME280;11492;42.646;23.400;2022-08-19T12:01:11;94680.41;;;39.00;22.37
22651;BME280;11492;42.646;23.400;2022-08-19T12:03:37;94678.78;;;38.96;22.38
22651;BME280;11492;42.646;23.400;2022-08-19T12:06:12;94678.56;;;38.82;23.32
22651;BME280;11492;42.646;23.400;2022-08-19T12:08:38;94679.50;;;38.93;23.26
22651;BME280;11492;42.646;23.400;2022-08-19T12:11:04;94673.56;;;39.06;22.51
22651;BME280;11492;42.646;23.400;2022-08-19T12:13:29;94673.09;;;39.01;22.92
22651;BME280;11492;42.646;23.400;2022-08-19T12:15:57;94668.44;;;39.01;22.88
22651;BME280;11492;42.646;23.400;2022-08-19T12:18:23;94660.34;;;39.01;22.99
22651;BME280;11492;42.646;23.400;2022-08-19T12:20:52;94657.03;;;38.89;23.22
22651;BME280;11492;42.646;23.400;2022-08-19T12:23:17;94648.97;;;38.70;23.06
22651;BME280;11492;42.646;23.400;2022-08-19T12:25:43;94647.63;;;38.58;23.29
22651;BME280;11492;42.646;23.400;2022-08-19T12:28:19;94649.84;;;38.52;22.84
22651;BME280;11492;42.646;23.400;2022-08-19T12:30:45;94647.69;;;38.43;23.21
22651;BME280;11492;42.646;23.400;2022-08-19T12:33:11;94645.66;;;38.36;23.05
22651;BME280;11492;42.646;23.400;2022-08-19T12:35:41;94645.03;;;38.24;22.99
22651;BME280;11492;42.646;23.400;2022-08-19T12:38:07;94642.00;;;38.07;23.06
22651;BME280;11492;42.646;23.400;2022-08-19T12:40:33;94642.16;;;37.95;23.24
22651;BME280;11492;42.646;23.400;2022-08-19T12:42:58;94631.28;;;37.92;23.26
22651;BME280;11492;42.646;23.400;2022-08-19T12:45:24;94638.88;;;37.86;23.80
22651;BME280;11492;42.646;23.400;2022-08-19T12:47:49;94637.19;;;37.78;23.16
22651;BME280;11492;42.646;23.400;2022-08-19T12:50:15;94627.75;;;37.69;24.04
22651;BME280;11492;42.646;23.400;2022-08-19T12:52:40;94629.84;;;37.60;24.43
22651;BME280;11492;42.646;23.400;2022-08-19T12:55:07;94631.16;;;37.51;23.85
22651;BME280;11492;42.646;23.400;2022-08-19T12:57:33;94625.13;;;37.39;24.45
22651;BME280;11492;42.646;23.400;2022-08-19T13:00:21;94628.75;;;37.27;24.12
22651;BME280;11492;42.646;23.400;2022-08-19T13:02:48;94625.28;;;37.27;24.52
22651;BME280;11492;42.646;23.400;2022-08-19T13:05:17;94621.94;;;37.33;25.12